createdAt,value
2023-03-15T00:00:33.034Z,91.94
2023-03-15T00:04:18.924Z,92.12
2023-03-15T00:07:46.084Z,91.38
2023-03-15T00:11:13.284Z,91.57
2023-03-15T00:14:40.891Z,91.33
2023-03-15T00:18:08.158Z,91.60
2023-03-15T00:21:35.316Z,91.47
2023-03-15T00:25:02.417Z,91.67
2023-03-15T00:28:29.747Z,91.69
2023-03-15T00:31:56.860Z,91.77
2023-03-15T00:35:25.055Z,91.31
2023-03-15T00:38:53.424Z,91.57
2023-03-15T00:42:20.487Z,91.23
2023-03-15T00:45:49.198Z,91.36
2023-03-15T00:49:16.190Z,91.11
2023-03-15T00:52:43.186Z,91.02
2023-03-15T00:56:12.242Z,90.84
2023-03-15T00:59:39.281Z,90.67
2023-03-15T01:03:07.715Z,90.53
2023-03-15T01:06:35.042Z,90.50
2023-03-15T01:10:02.665Z,90.76
2023-03-15T01:13:30.596Z,90.80
2023-03-15T01:16:57.668Z,91.29
2023-03-15T01:20:25.013Z,90.99
2023-03-15T01:23:52.704Z,91.05
2023-03-15T01:27:21.884Z,91.35
2023-03-15T01:30:53.845Z,91.68
2023-03-15T01:34:22.766Z,91.81
2023-03-15T01:37:52.069Z,91.96
2023-03-15T01:41:20.795Z,92.01
2023-03-15T01:44:56.804Z,92.14
2023-03-15T01:48:27.839Z,92.14
2023-03-15T01:51:59.583Z,92.24
2023-03-15T01:55:33.787Z,92.50
2023-03-15T01:59:11.742Z,92.71
2023-03-15T02:02:40.755Z,92.41
2023-03-15T02:06:11.004Z,92.02
2023-03-15T02:09:49.746Z,91.85
2023-03-15T02:13:22.818Z,92.04
2023-03-15T02:16:53.534Z,91.89
2023-03-15T02:20:33.415Z,91.82
2023-03-15T02:24:02.151Z,91.25
2023-03-15T02:27:32.428Z,91.39
2023-03-15T02:31:00.160Z,91.45
2023-03-15T02:34:30.186Z,91.25
2023-03-15T02:37:57.448Z,91.47
2023-03-15T02:41:29.661Z,91.57
2023-03-15T02:44:57.773Z,92.01
2023-03-15T02:48:25.015Z,91.86
2023-03-15T02:51:52.434Z,92.05
2023-03-15T02:55:21.888Z,92.27
2023-03-15T02:58:47.340Z,92.01
2023-03-15T03:02:15.471Z,92.35
2023-03-15T03:05:43.375Z,92.63
2023-03-15T03:09:10.664Z,92.76
2023-03-15T03:12:38.564Z,92.70
2023-03-15T03:16:06.169Z,92.60
2023-03-15T03:19:33.372Z,92.41
2023-03-15T03:23:05.907Z,92.04
2023-03-15T03:26:33.370Z,92.25
2023-03-15T03:30:01.645Z,92.12
2023-03-15T03:33:29.526Z,92.17
2023-03-15T03:36:57.124Z,91.87
2023-03-15T03:40:38.991Z,91.81
2023-03-15T03:44:06.727Z,91.68
2023-03-15T03:47:34.444Z,91.81
2023-03-15T03:51:01.787Z,92.02
2023-03-15T03:54:29.463Z,92.05
2023-03-15T03:57:57.344Z,92.02
2023-03-15T04:01:36.269Z,92.20
2023-03-15T04:05:03.600Z,92.33
2023-03-15T04:08:31.204Z,92.38
2023-03-15T04:11:58.922Z,92.37
2023-03-15T04:15:26.842Z,92.35
2023-03-15T04:18:57.604Z,92.62
2023-03-15T04:22:25.371Z,92.63
2023-03-15T04:26:06.774Z,93.12
2023-03-15T04:29:52.669Z,93.15
2023-03-15T04:33:46.356Z,93.26
2023-03-15T04:37:36.456Z,93.30
2023-03-15T04:41:21.638Z,93.48
2023-03-15T04:45:00.988Z,93.75
2023-03-15T04:48:39.217Z,93.91
2023-03-15T04:52:29.634Z,93.89
2023-03-15T04:56:15.300Z,93.87
2023-03-15T05:00:12.201Z,93.69
2023-03-15T05:03:51.298Z,93.74
2023-03-15T05:07:47.370Z,93.74
2023-03-15T05:11:28.429Z,93.55
2023-03-15T05:15:29.559Z,93.34
2023-03-15T05:19:12.170Z,93.42
2023-03-15T05:22:47.140Z,93.55
2023-03-15T05:26:32.719Z,93.30
2023-03-15T05:30:17.277Z,93.49
2023-03-15T05:34:04.420Z,93.54
2023-03-15T05:37:50.119Z,93.40
2023-03-15T05:41:53.032Z,93.20
2023-03-15T05:45:44.734Z,93.01
2023-03-15T05:49:27.379Z,92.94
2023-03-15T05:53:09.996Z,92.97
2023-03-15T05:57:00.621Z,92.95
2023-03-15T06:00:44.142Z,93.13
2023-03-15T06:04:17.488Z,93.33
2023-03-15T06:07:46.346Z,93.15
2023-03-15T06:11:14.439Z,92.77
2023-03-15T06:14:41.799Z,92.04
2023-03-15T06:18:09.607Z,91.82
2023-03-15T06:21:37.007Z,91.63
2023-03-15T06:25:11.518Z,90.71
2023-03-15T06:28:40.058Z,90.28
2023-03-15T06:32:08.372Z,90.18
2023-03-15T06:35:38.146Z,90.08
2023-03-15T06:39:05.747Z,90.20
2023-03-15T06:42:32.894Z,90.91
2023-03-15T06:46:00.440Z,90.47
2023-03-15T06:49:28.239Z,89.91
2023-03-15T06:52:55.445Z,89.80
2023-03-15T06:56:23.071Z,89.46
2023-03-15T06:59:50.861Z,89.03
2023-03-15T07:03:19.335Z,88.79
2023-03-15T07:06:46.465Z,88.51
2023-03-15T07:10:14.632Z,88.38
2023-03-15T07:13:42.256Z,88.54
2023-03-15T07:17:09.781Z,88.22
2023-03-15T07:20:37.866Z,87.93
2023-03-15T07:24:05.510Z,87.38
2023-03-15T07:27:32.592Z,86.50
2023-03-15T07:31:01.788Z,85.70
2023-03-15T07:34:29.140Z,84.35
2023-03-15T07:37:56.359Z,83.64
2023-03-15T07:41:23.418Z,82.47
2023-03-15T07:45:06.132Z,83.32
2023-03-15T07:48:33.449Z,83.38
2023-03-15T07:52:00.543Z,82.24
2023-03-15T07:55:28.205Z,81.99
2023-03-15T07:58:55.226Z,80.51
2023-03-15T08:02:22.299Z,79.68
2023-03-15T08:05:51.796Z,79.68
2023-03-15T08:09:18.788Z,80.20
2023-03-15T08:12:46.150Z,80.01
2023-03-15T08:16:13.250Z,79.33
2023-03-15T08:19:40.583Z,78.72
2023-03-15T08:23:09.182Z,77.67
2023-03-15T08:26:36.303Z,77.84
2023-03-15T08:30:03.700Z,76.99
2023-03-15T08:33:31.903Z,77.50
2023-03-15T08:36:59.109Z,77.09
2023-03-15T08:40:26.452Z,77.34
2023-03-15T08:43:53.725Z,77.11
2023-03-15T08:47:20.837Z,77.62
2023-03-15T08:50:48.017Z,77.39
2023-03-15T08:54:15.469Z,77.39
2023-03-15T08:57:43.955Z,77.05
2023-03-15T09:01:13.790Z,77.01
2023-03-15T09:04:39.331Z,77.46
2023-03-15T09:08:06.696Z,77.21
2023-03-15T09:11:33.826Z,77.35
2023-03-15T09:15:01.091Z,76.19
2023-03-15T09:18:28.568Z,76.54
2023-03-15T09:21:59.450Z,74.41
2023-03-15T09:25:30.692Z,73.98
2023-03-15T09:28:58.696Z,73.17
2023-03-15T09:32:29.034Z,73.47
2023-03-15T09:35:56.611Z,73.18
2023-03-15T09:39:24.822Z,73.34
2023-03-15T09:43:05.387Z,72.69
2023-03-15T09:46:35.263Z,71.51
2023-03-15T09:50:07.627Z,72.05
2023-03-15T09:53:41.468Z,72.43
2023-03-15T09:57:16.693Z,73.18
2023-03-15T10:00:47.736Z,70.65
2023-03-15T10:04:24.855Z,71.23
2023-03-15T10:07:52.414Z,70.87
2023-03-15T10:11:26.834Z,71.73
2023-03-15T10:15:25.711Z,71.18
2023-03-15T10:19:03.795Z,70.46
2023-03-15T10:22:35.496Z,69.99
2023-03-15T10:26:05.289Z,69.99
2023-03-15T10:29:32.984Z,69.51
2023-03-15T10:33:05.398Z,69.37
2023-03-15T10:36:32.527Z,68.72
2023-03-15T10:40:01.450Z,67.91
2023-03-15T10:43:32.303Z,67.14
2023-03-15T10:47:21.974Z,67.40
2023-03-15T10:50:52.059Z,67.76
2023-03-15T10:54:21.378Z,66.48
2023-03-15T10:57:56.937Z,65.77
2023-03-15T11:01:30.085Z,64.57
2023-03-15T11:05:14.767Z,64.09
2023-03-15T11:08:43.254Z,63.91
2023-03-15T11:12:19.340Z,63.31
2023-03-15T11:16:04.250Z,63.06
2023-03-15T11:19:35.540Z,62.79
2023-03-15T11:23:07.150Z,64.34
2023-03-15T11:26:38.655Z,64.29
2023-03-15T11:30:06.665Z,64.83
2023-03-15T11:33:44.997Z,64.06
2023-03-15T11:37:20.962Z,64.24
2023-03-15T11:40:52.843Z,63.73
2023-03-15T11:44:28.625Z,62.84
2023-03-15T11:47:58.592Z,61.70
2023-03-15T11:51:25.754Z,61.87
2023-03-15T11:54:55.653Z,61.69
2023-03-15T11:58:33.110Z,62.42
2023-03-15T12:02:22.405Z,63.44
2023-03-15T12:05:52.703Z,63.34
2023-03-15T12:09:49.159Z,62.24
2023-03-15T12:13:30.966Z,62.92
2023-03-15T12:17:40.473Z,63.33
2023-03-15T12:21:15.896Z,64.45
2023-03-15T12:24:45.605Z,65.30
2023-03-15T12:28:23.733Z,65.44
2023-03-15T12:32:01.116Z,64.19
2023-03-15T12:35:39.637Z,64.62
2023-03-15T12:39:38.369Z,64.85
2023-03-15T12:43:05.787Z,64.63
2023-03-15T12:46:55.907Z,63.31
2023-03-15T12:50:53.154Z,63.63
2023-03-15T12:54:22.442Z,64.31
2023-03-15T12:57:54.043Z,64.27
2023-03-15T13:01:25.976Z,63.50
2023-03-15T13:05:03.652Z,63.59
2023-03-15T13:08:41.628Z,62.69
2023-03-15T13:12:15.442Z,62.38
2023-03-15T13:15:46.307Z,62.63
2023-03-15T13:19:22.955Z,63.39
2023-03-15T13:22:58.797Z,64.19
2023-03-15T13:26:37.738Z,64.49
2023-03-15T13:30:25.918Z,64.86
2023-03-15T13:33:57.540Z,65.00
2023-03-15T13:37:27.100Z,64.60
2023-03-15T13:40:54.464Z,64.78
2023-03-15T13:44:25.269Z,65.03
2023-03-15T13:47:52.568Z,64.47
2023-03-15T13:51:25.521Z,64.65
2023-03-15T13:54:55.554Z,63.22
2023-03-15T13:58:23.497Z,63.35
2023-03-15T14:01:54.509Z,64.42
2023-03-15T14:05:27.611Z,66.08
2023-03-15T14:09:01.101Z,68.63
2023-03-15T14:12:33.385Z,69.96
2023-03-15T14:16:03.310Z,70.28
2023-03-15T14:19:34.065Z,70.77
2023-03-15T14:23:04.259Z,71.49
2023-03-15T14:26:32.475Z,71.69
2023-03-15T14:30:02.147Z,71.61
2023-03-15T14:33:34.621Z,71.17
2023-03-15T14:37:04.433Z,71.41
2023-03-15T14:40:35.067Z,71.25
2023-03-15T14:44:04.154Z,71.08
2023-03-15T14:47:31.339Z,70.37
2023-03-15T14:50:59.111Z,69.54
2023-03-15T14:54:26.578Z,68.96
2023-03-15T14:57:53.838Z,68.12
2023-03-15T15:01:25.210Z,67.53
2023-03-15T15:04:52.579Z,67.58
2023-03-15T15:08:22.795Z,66.90
2023-03-15T15:11:49.896Z,66.50
2023-03-15T15:15:21.641Z,66.44
2023-03-15T15:18:48.879Z,66.80
2023-03-15T15:22:15.919Z,66.65
2023-03-15T15:25:44.883Z,66.13
2023-03-15T15:29:16.283Z,66.45
2023-03-15T15:32:45.138Z,66.75
2023-03-15T15:36:19.383Z,66.23
2023-03-15T15:39:47.614Z,65.92
2023-03-15T15:43:14.773Z,65.47
2023-03-15T15:46:41.937Z,65.85
2023-03-15T15:50:12.914Z,66.18
2023-03-15T15:53:39.960Z,65.92
2023-03-15T15:57:08.773Z,65.76
2023-03-15T16:00:37.106Z,65.77
2023-03-15T16:04:05.519Z,65.71
2023-03-15T16:07:34.390Z,65.35
2023-03-15T16:11:02.353Z,65.50
2023-03-15T16:14:31.537Z,65.76
2023-03-15T16:18:01.171Z,64.84
2023-03-15T16:21:34.770Z,65.58
2023-03-15T16:25:03.535Z,65.75
2023-03-15T16:28:33.106Z,65.67
2023-03-15T16:32:10.168Z,65.43
2023-03-15T16:35:42.117Z,65.59
2023-03-15T16:39:11.510Z,65.98
2023-03-15T16:42:38.915Z,65.98
2023-03-15T16:46:16.705Z,66.30
2023-03-15T16:49:43.757Z,66.43
2023-03-15T16:53:13.730Z,66.69
2023-03-15T16:56:40.970Z,66.95
2023-03-15T17:00:12.806Z,67.03
2023-03-15T17:03:40.197Z,67.26
2023-03-15T17:07:07.395Z,67.51
2023-03-15T17:10:34.834Z,67.90
2023-03-15T17:14:02.278Z,68.01
2023-03-15T17:17:33.189Z,68.27
2023-03-15T17:21:01.016Z,68.54
2023-03-15T17:24:28.414Z,68.64
2023-03-15T17:27:55.655Z,68.85
2023-03-15T17:31:25.790Z,69.02
2023-03-15T17:34:58.945Z,69.24
2023-03-15T17:38:32.187Z,69.37
2023-03-15T17:42:00.265Z,69.58
2023-03-15T17:45:30.265Z,69.78
2023-03-15T17:48:58.139Z,70.38
2023-03-15T17:52:25.436Z,70.46
2023-03-15T17:55:53.959Z,70.76
2023-03-15T17:59:21.887Z,71.30
2023-03-15T18:02:55.710Z,71.39
2023-03-15T18:06:25.157Z,71.77
2023-03-15T18:09:53.435Z,72.21
2023-03-15T18:13:23.747Z,72.37
2023-03-15T18:16:51.814Z,72.67
2023-03-15T18:20:22.376Z,72.64
2023-03-15T18:23:51.189Z,72.97
2023-03-15T18:27:20.025Z,73.24
2023-03-15T18:34:32.635Z,73.46
2023-03-15T18:38:00.537Z,73.53
2023-03-15T18:41:28.899Z,73.77
2023-03-15T18:44:59.146Z,73.99
2023-03-15T18:48:40.004Z,73.94
2023-03-15T18:52:09.521Z,73.96
2023-03-15T18:55:37.581Z,74.33
2023-03-15T18:59:05.946Z,75.12
2023-03-15T19:02:34.185Z,74.80
2023-03-15T19:06:09.199Z,75.02
2023-03-15T19:09:36.880Z,75.27
2023-03-15T19:13:05.931Z,75.08
2023-03-15T19:16:33.680Z,75.24
2023-03-15T19:20:01.171Z,75.69
2023-03-15T19:23:29.955Z,75.69
2023-03-15T19:26:59.253Z,75.57
2023-03-15T19:30:27.858Z,75.21
2023-03-15T19:33:56.096Z,75.03
2023-03-15T19:37:23.182Z,74.90
2023-03-15T19:40:55.032Z,75.15
2023-03-15T19:44:23.500Z,75.10
2023-03-15T19:47:50.983Z,75.11
2023-03-15T19:51:18.067Z,75.07
2023-03-15T19:54:47.204Z,75.10
2023-03-15T19:58:14.807Z,75.35
2023-03-15T20:01:42.350Z,75.24
2023-03-15T20:05:12.819Z,75.63
2023-03-15T20:08:40.578Z,75.59
2023-03-15T20:12:09.307Z,75.70
2023-03-15T20:15:36.657Z,75.76
2023-03-15T20:19:04.042Z,75.84
2023-03-15T20:22:32.967Z,76.13
2023-03-15T20:26:09.951Z,76.11
2023-03-15T20:29:37.040Z,76.37
2023-03-15T20:33:04.217Z,76.55
2023-03-15T20:36:33.480Z,76.74
2023-03-15T20:40:00.840Z,76.74
2023-03-15T20:43:28.613Z,76.92
2023-03-15T20:46:58.917Z,77.00
2023-03-15T20:50:26.027Z,77.10
2023-03-15T20:53:53.258Z,77.20
2023-03-15T20:57:20.826Z,77.24
2023-03-15T21:00:48.050Z,77.55
2023-03-15T21:04:16.230Z,77.74
2023-03-15T21:07:44.150Z,77.76
2023-03-15T21:11:11.155Z,77.87
2023-03-15T21:14:38.524Z,78.06
2023-03-15T21:18:05.621Z,78.28
2023-03-15T21:21:32.692Z,78.39
2023-03-15T21:25:00.514Z,78.41
2023-03-15T21:28:27.928Z,78.43
2023-03-15T21:31:55.212Z,78.72
2023-03-15T21:35:23.252Z,79.12
2023-03-15T21:38:50.529Z,79.39
2023-03-15T21:42:17.959Z,79.63
2023-03-15T21:45:45.221Z,79.93
2023-03-15T21:49:13.410Z,80.04
2023-03-15T21:52:40.518Z,80.25
2023-03-15T21:56:08.786Z,80.33
2023-03-15T21:59:36.630Z,80.53
2023-03-15T22:03:04.219Z,80.72
2023-03-15T22:06:32.488Z,81.06
2023-03-15T22:09:59.529Z,81.21
2023-03-15T22:13:27.669Z,81.39
2023-03-15T22:16:55.025Z,81.28
2023-03-15T22:20:25.003Z,81.24
2023-03-15T22:23:53.199Z,81.34
2023-03-15T22:27:20.456Z,81.27
2023-03-15T22:30:50.425Z,81.05
2023-03-15T22:34:17.568Z,81.08
2023-03-15T22:37:44.691Z,81.08
2023-03-15T22:41:14.107Z,81.10
2023-03-15T22:44:41.264Z,81.25
2023-03-15T22:48:08.936Z,81.16
2023-03-15T22:51:35.963Z,81.38
2023-03-15T22:55:03.169Z,81.59
2023-03-15T22:58:30.511Z,81.59
2023-03-15T23:01:57.939Z,81.52
2023-03-15T23:05:25.243Z,81.45
2023-03-15T23:08:52.348Z,81.81
2023-03-15T23:12:24.333Z,82.23
2023-03-15T23:15:55.626Z,82.45
2023-03-15T23:19:23.446Z,82.52
2023-03-15T23:22:51.113Z,82.46
2023-03-15T23:26:20.482Z,82.31
2023-03-15T23:29:53.986Z,82.38
2023-03-15T23:33:23.257Z,82.57
2023-03-15T23:36:50.543Z,82.67
2023-03-15T23:40:17.829Z,82.93
2023-03-15T23:43:44.825Z,83.18
2023-03-15T23:47:12.766Z,82.84
2023-03-15T23:50:44.424Z,82.83
2023-03-15T23:54:13.017Z,82.83
2023-03-15T23:57:40.371Z,82.95
